createdAt,value
2019-01-19T00:04:23.801Z,-0.60
2019-01-19T00:14:35.829Z,-0.60
2019-01-19T00:25:09.260Z,-0.70
2019-01-19T00:35:49.893Z,-0.80
2019-01-19T00:46:20.359Z,-0.80
2019-01-19T00:56:43.497Z,-0.80
2019-01-19T01:07:36.019Z,-0.90
2019-01-19T01:17:55.229Z,-0.90
2019-01-19T01:28:20.429Z,-1.00
2019-01-19T01:38:49.641Z,-1.00
2019-01-19T01:49:26.457Z,-1.10
2019-01-19T02:00:05.959Z,-1.10
2019-01-19T02:10:51.431Z,-1.10
2019-01-19T02:21:36.141Z,-1.10
2019-01-19T02:32:06.675Z,-1.10
2019-01-19T02:42:42.310Z,-1.20
2019-01-19T02:53:25.872Z,-1.20
2019-01-19T03:04:02.134Z,-1.20
2019-01-19T03:14:48.367Z,-1.00
2019-01-19T03:25:23.353Z,-0.70
2019-01-19T03:35:39.554Z,-0.50
2019-01-19T03:46:29.161Z,-0.60
2019-01-19T03:57:09.749Z,-0.70
2019-01-19T04:07:26.352Z,-0.50
2019-01-19T04:17:55.857Z,-0.30
2019-01-19T04:28:03.055Z,-0.10
2019-01-19T04:38:08.338Z,-0.20
2019-01-19T04:48:14.047Z,0.00
2019-01-19T04:58:19.395Z,0.10
2019-01-19T05:08:24.738Z,0.40
2019-01-19T05:18:30.282Z,0.60
2019-01-19T05:28:35.793Z,0.70
2019-01-19T05:38:41.167Z,0.70
2019-01-19T05:48:46.500Z,0.70
2019-01-19T05:58:51.841Z,0.80
2019-01-19T06:08:57.178Z,0.90
2019-01-19T06:19:02.684Z,0.90
2019-01-19T06:29:07.886Z,1.00
2019-01-19T06:39:13.210Z,1.10
2019-01-19T06:49:18.573Z,1.30
2019-01-19T06:59:23.983Z,1.50
2019-01-19T07:09:29.291Z,1.60
2019-01-19T07:19:34.719Z,1.70
2019-01-19T07:29:40.033Z,1.70
2019-01-19T07:39:45.340Z,1.60
2019-01-19T07:49:50.625Z,1.70
2019-01-19T07:59:55.927Z,2.00
2019-01-19T08:10:01.287Z,2.20
2019-01-19T08:20:07.239Z,2.20
2019-01-19T08:30:15.793Z,2.30
2019-01-19T08:40:26.487Z,2.60
2019-01-19T08:50:31.855Z,2.70
2019-01-19T09:00:37.178Z,2.80
2019-01-19T09:10:42.516Z,3.10
2019-01-19T09:20:47.946Z,3.40
2019-01-19T09:30:53.367Z,3.40
2019-01-19T09:40:58.987Z,3.30
2019-01-19T09:51:04.468Z,3.60
2019-01-19T10:01:10.576Z,3.90
2019-01-19T10:11:16.244Z,4.10
2019-01-19T10:21:21.604Z,4.20
2019-01-19T10:31:26.937Z,4.10
2019-01-19T10:41:32.255Z,4.50
2019-01-19T10:51:37.682Z,5.00
2019-01-19T11:01:42.964Z,4.90
2019-01-19T11:11:48.290Z,4.90
2019-01-19T11:21:53.656Z,4.50
2019-01-19T11:31:59.047Z,3.70
2019-01-19T11:42:04.394Z,4.00
2019-01-19T11:52:09.841Z,3.80
2019-01-19T12:02:15.312Z,3.50
2019-01-19T12:12:20.776Z,3.60
2019-01-19T12:22:27.132Z,4.10
2019-01-19T12:32:32.635Z,3.90
2019-01-19T12:42:38.124Z,3.90
2019-01-19T12:52:43.652Z,4.00
2019-01-19T13:02:49.099Z,4.00
2019-01-19T13:13:16.223Z,4.00
2019-01-19T13:23:48.675Z,4.00
2019-01-19T13:34:47.779Z,3.70
2019-01-19T13:45:49.208Z,3.50
2019-01-19T13:56:35.665Z,3.50
2019-01-19T14:07:26.567Z,3.50
2019-01-19T14:17:55.988Z,3.50
2019-01-19T14:28:45.084Z,3.20
2019-01-19T14:39:32.689Z,2.70
2019-01-19T14:50:29.478Z,2.30
2019-01-19T15:00:56.236Z,2.30
2019-01-19T15:11:30.152Z,2.10
2019-01-19T15:22:03.374Z,1.80
2019-01-19T15:32:47.446Z,1.60
2019-01-19T15:43:25.438Z,1.30
2019-01-19T15:54:20.726Z,1.20
2019-01-19T16:05:02.922Z,1.10
2019-01-19T16:15:42.219Z,0.80
2019-01-19T16:26:12.070Z,0.70
2019-01-19T16:37:07.579Z,0.60
2019-01-19T16:47:41.710Z,0.40
2019-01-19T16:58:26.492Z,0.30
2019-01-19T17:09:19.571Z,0.20
2019-01-19T17:20:29.746Z,0.40
2019-01-19T17:31:37.152Z,0.70
2019-01-19T17:42:28.818Z,0.80
2019-01-19T17:53:12.218Z,0.80
2019-01-19T18:03:41.800Z,0.60
2019-01-19T18:14:39.731Z,0.30
2019-01-19T18:25:07.950Z,0.10
2019-01-19T18:35:39.878Z,0.00
2019-01-19T18:46:33.241Z,-0.10
2019-01-19T18:57:25.758Z,-0.20
2019-01-19T19:08:02.210Z,-0.20
2019-01-19T19:18:49.718Z,-0.30
2019-01-19T19:29:41.399Z,-0.40
2019-01-19T19:40:15.361Z,-0.40
2019-01-19T19:50:58.293Z,-0.40
2019-01-19T20:01:03.701Z,-0.40
2019-01-19T20:11:09.005Z,-0.50
2019-01-19T20:21:14.382Z,-0.50
2019-01-19T20:31:19.745Z,-0.60
2019-01-19T20:41:25.123Z,-0.70
2019-01-19T20:51:30.499Z,-0.80
2019-01-19T21:01:36.008Z,-0.80
2019-01-19T21:11:41.413Z,-0.90
2019-01-19T21:21:46.905Z,-1.00
2019-01-19T21:31:52.267Z,-1.00
2019-01-19T21:41:57.591Z,-1.00
2019-01-19T21:52:02.979Z,-1.10
2019-01-19T22:02:08.369Z,-1.10
2019-01-19T22:12:13.978Z,-1.20
2019-01-19T22:22:19.386Z,-1.20
2019-01-19T22:32:25.029Z,-1.10
2019-01-19T22:42:30.380Z,-1.10
2019-01-19T22:52:35.700Z,-1.10
2019-01-19T23:02:41.106Z,-1.10
2019-01-19T23:12:47.571Z,-1.10
2019-01-19T23:22:52.944Z,-1.10
2019-01-19T23:32:58.382Z,-1.10
2019-01-19T23:43:03.677Z,-1.10
2019-01-19T23:53:09.090Z,-1.20
